Time;durP1;ratioP1;P1;durP2;ratioP2;P2;SDS_P1;SDS_P2;PMS_P1;PMS_P2;Temp;Humidity;BMP_temperature;BMP_pressure;BME280_temperature;BME280_humidity;BME280_pressure;Samples;Min_cycle;Max_cycle;Signal;HPM_P1;HPM_P2
2022/09/01 00:01:42;;;;;;;2.70;1.25;;;16.40;99.90;;;;;;7359670;32;20172;-58
2022/09/01 00:05:45;;;;;;;2.10;1.00;;;16.40;99.90;;;;;;7360397;32;20257;-60
2022/09/01 00:09:47;;;;;;;3.08;0.77;;;16.30;99.90;;;;;;7361322;32;20099;-59
2022/09/01 00:13:49;;;;;;;2.30;0.80;;;16.20;99.90;;;;;;7356770;32;20298;-59
2022/09/01 00:17:51;;;;;;;2.90;0.95;;;16.20;99.90;;;;;;7355927;32;20146;-59
2022/09/01 00:21:53;;;;;;;5.60;1.00;;;16.20;99.90;;;;;;7357155;32;20107;-59
2022/09/01 00:25:56;;;;;;;5.37;1.20;;;16.20;99.90;;;;;;7357778;32;20282;-59
2022/09/01 00:29:58;;;;;;;2.33;1.00;;;16.20;99.90;;;;;;7360232;32;20122;-59
2022/09/01 00:34:01;;;;;;;3.12;1.37;;;16.10;99.90;;;;;;7363155;32;20824;-59
2022/09/01 00:38:03;;;;;;;2.67;1.08;;;16.20;99.90;;;;;;7363658;32;20252;-59
2022/09/01 00:42:04;;;;;;;4.05;1.35;;;16.10;99.90;;;;;;7363258;32;20127;-59
2022/09/01 00:46:09;;;;;;;4.87;1.00;;;16.20;99.90;;;;;;7354735;32;20102;-59
2022/09/01 00:50:15;;;;;;;3.00;1.20;;;16.20;99.90;;;;;;7358739;32;20247;-59
2022/09/01 00:54:27;;;;;;;2.70;1.20;;;16.20;99.90;;;;;;7366243;32;20266;-59
2022/09/01 00:58:30;;;;;;;3.40;1.20;;;16.00;99.90;;;;;;7356738;32;21107;-59
2022/09/01 01:02:32;;;;;;;3.75;1.27;;;16.00;99.90;;;;;;7358904;32;20107;-59
2022/09/01 01:06:34;;;;;;;2.08;1.23;;;15.90;99.90;;;;;;7358601;32;20206;-58
2022/09/01 01:10:38;;;;;;;3.53;1.27;;;15.80;99.90;;;;;;7352405;32;20178;-59
2022/09/01 01:14:40;;;;;;;2.17;1.20;;;15.80;99.90;;;;;;7355974;32;20266;-58
2022/09/01 01:18:44;;;;;;;6.90;1.27;;;15.70;99.90;;;;;;7352824;32;21155;-59
2022/09/01 01:23:05;;;;;;;1.40;0.80;;;15.70;99.90;;;;;;7352705;32;20202;-59
2022/09/01 01:27:07;;;;;;;3.83;1.23;;;15.90;99.90;;;;;;7353620;32;20127;-59
2022/09/01 01:31:21;;;;;;;6.28;1.37;;;16.00;99.90;;;;;;7352108;32;20164;-59
2022/09/01 01:35:24;;;;;;;5.95;1.00;;;16.00;99.90;;;;;;7364303;32;20108;-59
2022/09/01 01:39:25;;;;;;;2.17;1.08;;;16.10;99.90;;;;;;7359691;32;20241;-60
2022/09/01 01:43:27;;;;;;;4.50;1.27;;;16.20;99.90;;;;;;7354204;32;20567;-59
2022/09/01 01:47:29;;;;;;;4.07;1.10;;;16.20;99.90;;;;;;7354546;32;20115;-59
2022/09/01 01:51:31;;;;;;;1.65;0.98;;;16.30;99.90;;;;;;7361033;32;20099;-60
2022/09/01 01:55:33;;;;;;;4.78;1.05;;;16.30;99.90;;;;;;7358846;32;20133;-63
2022/09/01 01:59:37;;;;;;;4.35;0.90;;;16.20;99.90;;;;;;7353428;32;20272;-60
2022/09/01 02:03:39;;;;;;;1.50;0.82;;;16.20;99.90;;;;;;7356517;32;20160;-59
2022/09/01 02:07:42;;;;;;;2.87;1.00;;;16.20;99.90;;;;;;7353082;32;20246;-59
2022/09/01 02:11:44;;;;;;;2.78;1.00;;;16.30;99.90;;;;;;7358780;32;20163;-59
2022/09/01 02:15:52;;;;;;;3.70;1.20;;;16.20;99.90;;;;;;7357889;32;20158;-60
2022/09/01 02:19:56;;;;;;;2.03;1.10;;;16.20;99.90;;;;;;7358507;32;20111;-59
2022/09/01 02:24:01;;;;;;;1.75;0.90;;;16.10;99.90;;;;;;7362030;32;20099;-59
2022/09/01 02:28:04;;;;;;;3.28;1.12;;;16.10;99.90;;;;;;7353529;32;20178;-59
2022/09/01 02:32:06;;;;;;;3.35;1.23;;;15.90;99.90;;;;;;7357602;32;20129;-60
2022/09/01 02:36:13;;;;;;;7.97;1.55;;;15.80;99.90;;;;;;7354555;32;20254;-59
2022/09/01 02:40:14;;;;;;;5.37;1.27;;;15.70;99.90;;;;;;7348952;32;20162;-59
2022/09/01 02:44:20;;;;;;;2.60;1.00;;;15.60;99.90;;;;;;7360489;32;20138;-59
2022/09/01 02:48:36;;;;;;;3.22;1.00;;;15.60;99.90;;;;;;7356196;32;20963;-59
2022/09/01 02:52:39;;;;;;;5.45;1.42;;;15.50;99.90;;;;;;7353226;32;20271;-60
2022/09/01 02:56:41;;;;;;;4.20;1.42;;;15.40;99.90;;;;;;7357590;32;20212;-60
2022/09/01 03:00:43;;;;;;;6.78;1.30;;;15.30;99.90;;;;;;7352461;32;20218;-61
2022/09/01 03:04:46;;;;;;;2.67;1.30;;;15.30;99.90;;;;;;7361591;32;20107;-58
2022/09/01 03:08:51;;;;;;;2.70;1.10;;;15.20;99.90;;;;;;7354052;32;20798;-59
2022/09/01 03:12:53;;;;;;;2.72;1.70;;;15.00;99.90;;;;;;7354941;32;20111;-59
2022/09/01 03:16:56;;;;;;;6.10;1.48;;;15.00;99.90;;;;;;7355676;32;20127;-59
2022/09/01 03:20:58;;;;;;;3.47;1.20;;;14.90;99.90;;;;;;7351015;32;20206;-59
2022/09/01 03:25:00;;;;;;;2.53;1.50;;;14.90;99.90;;;;;;7357688;32;20222;-59
2022/09/01 03:29:02;;;;;;;3.47;1.48;;;14.80;99.90;;;;;;7360561;32;20198;-59
2022/09/01 03:33:06;;;;;;;5.10;1.35;;;14.70;99.90;;;;;;7357914;32;20233;-59
2022/09/01 03:37:08;;;;;;;2.70;1.30;;;14.80;99.90;;;;;;7361588;32;20122;-61
2022/09/01 03:41:11;;;;;;;5.03;1.45;;;14.80;99.90;;;;;;7360370;32;20568;-59
2022/09/01 03:45:14;;;;;;;6.72;1.60;;;14.80;99.90;;;;;;7365482;32;20218;-59
2022/09/01 03:49:23;;;;;;;5.90;1.48;;;14.80;99.90;;;;;;7358271;32;20115;-59
2022/09/01 03:53:26;;;;;;;2.55;1.12;;;14.80;99.90;;;;;;7357559;32;20810;-60
2022/09/01 03:57:28;;;;;;;3.42;1.40;;;14.80;99.90;;;;;;7358204;32;20278;-59
2022/09/01 04:01:42;;;;;;;3.87;1.40;;;14.80;99.90;;;;;;7356532;32;20259;-59
2022/09/01 04:05:44;;;;;;;2.97;1.30;;;14.80;99.90;;;;;;7364689;32;20179;-61
2022/09/01 04:09:46;;;;;;;3.72;1.25;;;14.70;99.90;;;;;;7356088;32;20191;-59
2022/09/01 04:13:49;;;;;;;3.90;1.60;;;14.80;99.90;;;;;;7360100;32;20274;-59
2022/09/01 04:18:08;;;;;;;6.68;1.60;;;14.80;99.90;;;;;;7363424;32;20447;-60
2022/09/01 04:22:13;;;;;;;3.92;1.30;;;14.80;99.90;;;;;;7361755;32;20519;-59
2022/09/01 04:26:19;;;;;;;4.10;1.50;;;14.80;99.90;;;;;;7362673;32;20167;-59
2022/09/01 04:30:25;;;;;;;2.92;1.62;;;14.80;99.90;;;;;;7355468;32;20586;-60
2022/09/01 04:34:35;;;;;;;4.40;1.33;;;14.70;99.90;;;;;;7367046;32;20179;-59
2022/09/01 04:38:37;;;;;;;4.07;1.58;;;14.60;99.90;;;;;;7359255;32;20210;-59
2022/09/01 04:42:41;;;;;;;3.00;1.50;;;14.50;99.90;;;;;;7356767;32;20721;-59
2022/09/01 04:46:49;;;;;;;3.83;1.70;;;14.50;99.90;;;;;;7356801;32;20187;-61
2022/09/01 04:50:51;;;;;;;2.72;1.62;;;14.50;99.90;;;;;;7353285;32;20131;-64
2022/09/01 04:54:53;;;;;;;2.83;1.77;;;14.40;99.90;;;;;;7360299;32;20186;-64
2022/09/01 04:58:55;;;;;;;4.20;2.22;;;14.40;99.90;;;;;;7361319;32;20172;-64
2022/09/01 05:03:03;;;;;;;5.70;2.00;;;14.30;99.90;;;;;;7367461;32;20141;-65
2022/09/01 05:07:05;;;;;;;6.45;2.00;;;14.30;99.90;;;;;;7351891;32;20162;-67
2022/09/01 05:11:06;;;;;;;3.72;1.98;;;14.20;99.90;;;;;;7353933;32;20103;-66
2022/09/01 05:15:08;;;;;;;2.80;1.77;;;14.20;99.90;;;;;;7358380;32;20238;-65
2022/09/01 05:19:13;;;;;;;3.47;1.60;;;14.20;99.90;;;;;;7356097;32;20679;-66
2022/09/01 05:23:18;;;;;;;3.15;1.60;;;14.10;99.90;;;;;;7352547;32;20110;-66
2022/09/01 05:27:21;;;;;;;2.78;1.85;;;14.10;99.90;;;;;;7360627;32;20104;-67
2022/09/01 05:31:26;;;;;;;4.93;1.87;;;14.10;99.90;;;;;;7360041;32;20108;-67
2022/09/01 05:35:30;;;;;;;5.03;1.70;;;14.10;99.90;;;;;;7357071;32;20706;-67
2022/09/01 05:39:36;;;;;;;4.70;1.92;;;14.20;99.90;;;;;;7357262;32;20316;-64
2022/09/01 05:43:38;;;;;;;7.12;1.92;;;14.20;99.90;;;;;;7371798;32;20111;-64
2022/09/01 05:47:40;;;;;;;6.57;3.33;;;14.30;99.90;;;;;;7356599;32;20229;-65
2022/09/01 05:51:48;;;;;;;6.07;1.83;;;14.40;99.90;;;;;;7358504;32;20186;-64
2022/09/01 05:55:56;;;;;;;5.85;1.65;;;14.50;99.90;;;;;;7362008;32;20232;-65
2022/09/01 05:59:58;;;;;;;3.08;1.45;;;14.70;99.90;;;;;;7362242;32;20150;-63
2022/09/01 06:04:04;;;;;;;3.50;1.60;;;14.80;99.90;;;;;;7358617;32;20107;-64
2022/09/01 06:08:09;;;;;;;3.50;1.60;;;15.00;99.90;;;;;;7366332;32;20884;-64
2022/09/01 06:12:16;;;;;;;7.22;1.80;;;15.10;99.90;;;;;;7365256;32;20174;-63
2022/09/01 06:16:19;;;;;;;4.22;1.60;;;15.30;99.90;;;;;;7358461;32;20134;-65
2022/09/01 06:20:21;;;;;;;5.97;1.60;;;15.30;99.90;;;;;;7363872;32;20210;-64
2022/09/01 06:24:23;;;;;;;4.62;1.40;;;15.40;99.90;;;;;;7364342;32;20575;-63
2022/09/01 06:28:25;;;;;;;2.75;1.48;;;15.60;99.90;;;;;;7347025;32;20125;-64
2022/09/01 06:32:27;;;;;;;2.50;1.37;;;15.80;99.90;;;;;;7360481;32;20578;-63
2022/09/01 06:36:31;;;;;;;2.92;1.60;;;16.00;99.90;;;;;;7356924;32;20143;-65
2022/09/01 06:40:39;;;;;;;4.65;1.48;;;16.00;99.90;;;;;;7358255;32;20275;-65
2022/09/01 06:44:41;;;;;;;5.60;1.52;;;16.20;99.90;;;;;;7364598;32;20122;-65
2022/09/01 06:48:45;;;;;;;2.87;1.20;;;16.40;99.90;;;;;;7360501;32;20222;-65
2022/09/01 06:53:02;;;;;;;2.72;1.30;;;16.60;99.90;;;;;;7363314;32;20134;-64
2022/09/01 06:57:26;;;;;;;4.35;1.15;;;16.80;99.90;;;;;;7354317;32;20823;-65
2022/09/01 07:01:50;;;;;;;4.03;1.33;;;17.00;99.90;;;;;;7356459;32;20103;-65
2022/09/01 07:05:53;;;;;;;4.18;1.33;;;17.10;99.90;;;;;;7356839;32;20348;-65
2022/09/01 07:10:18;;;;;;;2.30;1.25;;;17.20;99.90;;;;;;7354275;32;20103;-65
2022/09/01 07:14:23;;;;;;;6.80;1.10;;;17.40;99.90;;;;;;7359646;32;20103;-65
2022/09/01 07:18:26;;;;;;;1.62;1.10;;;17.50;99.90;;;;;;7360522;32;20580;-65
2022/09/01 07:22:28;;;;;;;4.50;1.42;;;17.60;99.90;;;;;;7364405;32;20423;-65
2022/09/01 07:26:50;;;;;;;4.47;1.25;;;17.70;99.90;;;;;;7356066;32;20443;-65
2022/09/01 07:30:52;;;;;;;3.00;1.40;;;17.70;99.90;;;;;;7365911;32;20279;-65
2022/09/01 07:34:54;;;;;;;4.97;1.30;;;17.80;99.90;;;;;;7364666;32;20110;-66
2022/09/01 07:38:56;;;;;;;2.65;0.90;;;17.90;99.90;;;;;;7354812;32;20135;-65
2022/09/01 07:43:23;;;;;;;3.60;1.23;;;18.00;99.90;;;;;;7357288;32;20205;-64
2022/09/01 07:47:28;;;;;;;3.40;0.98;;;18.20;99.90;;;;;;7356136;32;20480;-65
2022/09/01 07:51:53;;;;;;;3.45;0.90;;;18.30;99.90;;;;;;7356864;32;20235;-64
2022/09/01 07:55:57;;;;;;;4.72;0.95;;;18.40;99.90;;;;;;7348130;32;20224;-65
2022/09/01 07:59:59;;;;;;;2.58;1.10;;;18.50;99.90;;;;;;7351297;32;20258;-65
2022/09/01 08:04:01;;;;;;;3.83;0.90;;;18.70;99.90;;;;;;7358112;32;20107;-65
2022/09/01 08:08:03;;;;;;;3.45;0.88;;;18.80;99.90;;;;;;7362295;32;20870;-65
2022/09/01 08:12:19;;;;;;;5.72;0.77;;;18.90;99.90;;;;;;7364322;32;20230;-64
2022/09/01 08:16:30;;;;;;;2.20;0.70;;;19.10;99.90;;;;;;7362281;32;20121;-65
2022/09/01 08:20:46;;;;;;;1.80;0.70;;;19.30;99.90;;;;;;7365240;32;20697;-65
2022/09/01 08:24:48;;;;;;;1.40;0.95;;;19.50;99.90;;;;;;7357038;32;20460;-65
2022/09/01 08:28:52;;;;;;;4.37;0.68;;;19.60;99.90;;;;;;7357293;32;20244;-65
2022/09/01 08:32:56;;;;;;;1.35;0.90;;;19.90;99.90;;;;;;7366126;32;20151;-64
2022/09/01 08:36:58;;;;;;;1.37;0.75;;;20.00;99.90;;;;;;7367042;32;20207;-65
2022/09/01 08:41:02;;;;;;;2.95;0.90;;;20.20;99.90;;;;;;7357592;32;20115;-67
2022/09/01 08:45:37;;;;;;;2.55;1.00;;;20.30;99.90;;;;;;7357492;32;20125;-66
2022/09/01 08:49:39;;;;;;;2.50;0.57;;;20.60;99.90;;;;;;7350541;32;20151;-66
2022/09/01 08:54:09;;;;;;;1.60;0.70;;;21.00;99.90;;;;;;7359811;32;20119;-65
2022/09/01 08:58:14;;;;;;;2.15;0.70;;;21.00;99.90;;;;;;7367750;32;20523;-68
2022/09/01 09:02:29;;;;;;;1.83;0.60;;;21.40;97.40;;;;;;7360847;32;20312;-65
2022/09/01 09:06:53;;;;;;;2.53;0.70;;;21.20;95.40;;;;;;7357130;32;20551;-66
2022/09/01 09:11:04;;;;;;;1.75;0.62;;;21.40;96.80;;;;;;7358096;32;20099;-66
2022/09/01 09:15:30;;;;;;;1.23;0.60;;;21.70;96.70;;;;;;7360342;32;20122;-65
2022/09/01 09:19:39;;;;;;;2.25;0.50;;;22.00;96.30;;;;;;7365300;32;20202;-65
2022/09/01 09:23:45;;;;;;;2.65;0.50;;;22.40;92.10;;;;;;7359384;32;20126;-65
2022/09/01 09:27:48;;;;;;;3.08;0.47;;;22.60;90.90;;;;;;7356483;32;20154;-65
2022/09/01 09:32:07;;;;;;;4.20;0.65;;;22.40;86.20;;;;;;7358184;32;20529;-64
2022/09/01 09:36:31;;;;;;;2.97;0.50;;;22.50;86.00;;;;;;7357634;32;20398;-66
2022/09/01 09:40:33;;;;;;;2.70;0.60;;;23.10;83.50;;;;;;7358398;32;20217;-66
2022/09/01 09:44:55;;;;;;;2.25;0.50;;;23.30;79.60;;;;;;7355142;32;20217;-65
2022/09/01 09:49:31;;;;;;;2.80;0.60;;;23.70;78.80;;;;;;7357797;32;20175;-65
2022/09/01 09:53:38;;;;;;;1.65;0.50;;;24.50;75.40;;;;;;7334108;32;20212;-65
2022/09/01 09:57:40;;;;;;;2.40;0.50;;;25.10;74.70;;;;;;7359050;32;20626;-65
2022/09/01 10:01:42;;;;;;;1.30;0.70;;;25.20;73.80;;;;;;7355654;32;20206;-65
2022/09/01 10:05:47;;;;;;;1.77;0.70;;;25.30;72.00;;;;;;7361307;32;20110;-65
2022/09/01 10:09:51;;;;;;;1.87;0.70;;;25.80;70.60;;;;;;7358239;32;20153;-65
2022/09/01 10:13:53;;;;;;;1.15;0.47;;;26.80;69.30;;;;;;7361085;32;20136;-66
2022/09/01 10:18:20;;;;;;;2.67;0.50;;;27.90;68.70;;;;;;7353911;32;20091;-65
2022/09/01 10:22:32;;;;;;;1.62;0.60;;;28.00;62.70;;;;;;7349902;32;20544;-65
2022/09/01 10:26:38;;;;;;;1.08;0.60;;;27.50;61.90;;;;;;7354774;32;20315;-65
2022/09/01 10:30:42;;;;;;;;;;;27.40;59.90;;;;;;7359825;32;20301;-65
2022/09/01 10:34:45;;;;;;;3.17;0.65;;;26.90;61.00;;;;;;7365540;32;20106;-65
2022/09/01 10:38:48;;;;;;;3.40;0.65;;;27.10;63.90;;;;;;7358450;32;20241;-65
2022/09/01 10:42:57;;;;;;;1.42;0.73;;;27.70;64.10;;;;;;7361163;32;20125;-65
2022/09/01 10:47:09;;;;;;;3.12;0.60;;;27.30;61.10;;;;;;7356950;32;20123;-64
2022/09/01 10:51:15;;;;;;;6.17;0.83;;;27.30;63.30;;;;;;7355608;32;20598;-64
2022/09/01 10:55:45;;;;;;;2.50;0.75;;;27.40;62.00;;;;;;7354565;32;20344;-65
2022/09/01 10:59:47;;;;;;;4.60;0.93;;;26.60;61.40;;;;;;7357058;32;20173;-64
2022/09/01 11:03:58;;;;;;;5.95;0.70;;;26.80;62.30;;;;;;7355493;32;20126;-65
2022/09/01 11:08:39;;;;;;;3.00;0.65;;;26.80;61.50;;;;;;7362494;32;20193;-65
2022/09/01 11:12:50;;;;;;;2.28;0.70;;;26.20;62.80;;;;;;7352882;32;20219;-64
2022/09/01 11:17:14;;;;;;;1.12;0.70;;;25.50;63.20;;;;;;7354479;32;20202;-67
2022/09/01 11:21:34;;;;;;;5.28;0.98;;;25.80;64.80;;;;;;7366499;32;20228;-66
2022/09/01 11:25:39;;;;;;;3.50;0.80;;;26.20;62.80;;;;;;7353792;32;20579;-66
2022/09/01 11:29:57;;;;;;;3.78;0.75;;;26.10;61.10;;;;;;7358889;32;20107;-65
2022/09/01 11:34:12;;;;;;;2.33;0.70;;;26.00;62.10;;;;;;7353568;32;20191;-65
2022/09/01 11:38:17;;;;;;;3.95;0.82;;;26.00;61.20;;;;;;7353108;32;20248;-65
2022/09/01 11:42:35;;;;;;;1.90;0.60;;;26.10;63.20;;;;;;7360003;32;20312;-65
2022/09/01 11:46:42;;;;;;;3.75;1.08;;;26.50;63.10;;;;;;7366091;32;20091;-66
2022/09/01 11:50:54;;;;;;;;;;;26.30;59.70;;;;;;7362136;32;20225;-66
2022/09/01 11:54:58;;;;;;;2.90;0.85;;;26.30;62.30;;;;;;7361458;32;20566;-65
2022/09/01 11:58:59;;;;;;;3.92;1.05;;;26.80;62.10;;;;;;7362076;32;20141;-66
2022/09/01 12:03:01;;;;;;;2.45;0.75;;;26.80;60.00;;;;;;7363771;32;20194;-65
2022/09/01 12:07:07;;;;;;;4.95;1.00;;;27.20;57.90;;;;;;7377574;32;20146;-64
2022/09/01 12:11:19;;;;;;;4.97;0.90;;;27.40;58.30;;;;;;7356144;32;20130;-65
2022/09/01 12:15:26;;;;;;;2.55;0.70;;;27.90;56.80;;;;;;7359688;32;20235;-66
2022/09/01 12:19:33;;;;;;;1.67;0.70;;;27.60;58.80;;;;;;7358206;32;20161;-67
2022/09/01 12:23:42;;;;;;;1.80;0.62;;;27.80;58.20;;;;;;7356977;32;20271;-66
2022/09/01 12:27:43;;;;;;;3.83;0.90;;;27.30;56.90;;;;;;7365763;32;20654;-66
2022/09/01 12:31:49;;;;;;;2.12;0.80;;;27.30;56.90;;;;;;7362617;32;20179;-67
2022/09/01 12:35:52;;;;;;;3.47;0.70;;;27.10;56.70;;;;;;7367560;32;20106;-67
2022/09/01 12:40:00;;;;;;;2.22;0.60;;;27.20;58.80;;;;;;7361497;32;20107;-67
2022/09/01 12:44:26;;;;;;;2.35;0.85;;;27.50;56.50;;;;;;7356995;32;20141;-57
2022/09/01 12:48:32;;;;;;;3.72;0.77;;;27.80;57.10;;;;;;7364462;32;20122;-57
2022/09/01 12:52:43;;;;;;;1.73;0.70;;;27.80;59.10;;;;;;7363709;32;20598;-58
2022/09/01 12:56:48;;;;;;;2.42;0.80;;;27.90;57.30;;;;;;7357910;32;20211;-57
2022/09/01 13:01:24;;;;;;;4.12;1.05;;;27.80;56.40;;;;;;7356203;32;20119;-57
2022/09/01 13:05:50;;;;;;;2.75;0.85;;;27.70;57.10;;;;;;7359132;32;20237;-57
2022/09/01 13:09:52;;;;;;;2.03;0.88;;;28.10;57.70;;;;;;7355957;32;21384;-58
2022/09/01 13:13:54;;;;;;;1.42;0.85;;;28.50;55.70;;;;;;7355863;32;20494;-57
2022/09/01 13:17:56;;;;;;;5.15;1.00;;;27.90;56.20;;;;;;7358598;32;20206;-57
2022/09/01 13:21:57;;;;;;;2.50;0.80;;;27.40;57.40;;;;;;7359680;32;20098;-58
2022/09/01 13:25:59;;;;;;;2.55;1.12;;;27.00;58.50;;;;;;7361275;32;20126;-67
2022/09/01 13:30:02;;;;;;;2.53;1.00;;;27.10;59.40;;;;;;7357481;32;20119;-58
2022/09/01 13:34:03;;;;;;;3.10;0.77;;;27.50;56.90;;;;;;7349456;32;20099;-66
2022/09/01 13:38:24;;;;;;;3.80;0.90;;;27.60;56.80;;;;;;7350764;32;20500;-65
2022/09/01 13:42:26;;;;;;;3.17;1.10;;;27.10;56.70;;;;;;7347489;32;20145;-64
2022/09/01 13:46:29;;;;;;;3.12;0.80;;;26.30;58.10;;;;;;7353892;32;20175;-65
2022/09/01 13:50:31;;;;;;;2.67;0.90;;;26.00;60.30;;;;;;7357566;32;20111;-66
2022/09/01 13:54:53;;;;;;;1.98;0.88;;;26.20;61.40;;;;;;7350762;32;20208;-66
2022/09/01 13:58:54;;;;;;;2.72;0.73;;;25.90;61.70;;;;;;7352049;32;20258;-66
2022/09/01 14:02:59;;;;;;;2.17;1.00;;;25.80;62.20;;;;;;7355876;32;20545;-65
2022/09/01 14:07:01;;;;;;;1.87;0.68;;;25.80;62.00;;;;;;7349284;32;21059;-66
2022/09/01 14:11:02;;;;;;;1.55;0.80;;;25.70;62.90;;;;;;7349818;32;20194;-66
2022/09/01 14:15:05;;;;;;;2.75;0.93;;;25.70;63.30;;;;;;7350446;32;20177;-66
2022/09/01 14:19:19;;;;;;;3.12;0.90;;;25.20;63.60;;;;;;7346625;32;20694;-65
2022/09/01 14:23:20;;;;;;;2.67;0.85;;;25.10;64.70;;;;;;7349316;32;20175;-66
2022/09/01 14:27:22;;;;;;;2.05;0.80;;;25.00;65.80;;;;;;7353567;32;20971;-67
2022/09/01 14:31:24;;;;;;;2.37;0.90;;;25.00;65.40;;;;;;7348182;32;20146;-67
2022/09/01 14:35:27;;;;;;;3.28;2.10;;;25.20;63.10;;;;;;7349507;32;20107;-65
2022/09/01 14:39:29;;;;;;;3.10;0.98;;;25.40;62.60;;;;;;7351248;32;20679;-65
2022/09/01 14:43:41;;;;;;;3.92;1.02;;;25.30;62.20;;;;;;7352208;32;20194;-67
2022/09/01 14:47:50;;;;;;;5.22;0.90;;;25.10;64.10;;;;;;7351268;32;20201;-58
2022/09/01 14:51:51;;;;;;;1.73;0.80;;;25.00;63.60;;;;;;7353249;32;20202;-59
2022/09/01 14:56:16;;;;;;;3.28;0.85;;;25.00;63.60;;;;;;7350342;32;20207;-58
2022/09/01 15:00:19;;;;;;;2.33;0.68;;;25.00;64.80;;;;;;7349241;32;20220;-58
2022/09/01 15:04:22;;;;;;;4.95;0.93;;;25.20;63.70;;;;;;7352506;32;20274;-59
2022/09/01 15:08:23;;;;;;;2.00;0.70;;;25.50;62.90;;;;;;7356326;32;20228;-59
2022/09/01 15:12:29;;;;;;;3.10;1.00;;;25.50;62.10;;;;;;7352905;32;20157;-67
2022/09/01 15:16:38;;;;;;;2.67;0.80;;;25.40;61.70;;;;;;7354686;32;20520;-65
2022/09/01 15:20:44;;;;;;;1.62;0.70;;;25.50;61.80;;;;;;7353191;32;20232;-66
2022/09/01 15:24:46;;;;;;;5.53;0.73;;;25.40;61.10;;;;;;7352529;32;20118;-66
2022/09/01 15:28:49;;;;;;;1.30;1.00;;;25.20;61.10;;;;;;7352565;32;20154;-68
2022/09/01 15:32:53;;;;;;;2.58;0.85;;;25.10;60.70;;;;;;7351433;32;20187;-66
2022/09/01 15:36:55;;;;;;;2.65;0.70;;;24.80;62.60;;;;;;7350137;32;20199;-66
2022/09/01 15:40:56;;;;;;;3.28;0.90;;;24.80;62.50;;;;;;7353664;32;20497;-68
2022/09/01 15:44:59;;;;;;;3.30;0.80;;;24.60;63.80;;;;;;7351542;32;20287;-66
2022/09/01 15:49:04;;;;;;;1.95;0.77;;;24.50;63.80;;;;;;7344846;32;20126;-66
2022/09/01 15:53:07;;;;;;;5.25;0.80;;;24.40;63.90;;;;;;7351670;32;20170;-66
2022/09/01 15:57:09;;;;;;;5.60;0.70;;;24.50;64.70;;;;;;7345972;32;20156;-66
2022/09/01 16:01:10;;;;;;;1.92;0.80;;;24.50;64.00;;;;;;7348414;32;20103;-66
2022/09/01 16:05:13;;;;;;;1.42;1.00;;;24.50;63.80;;;;;;7349344;32;20137;-66
2022/09/01 16:09:17;;;;;;;1.15;0.70;;;24.50;62.90;;;;;;7356687;32;20301;-66
2022/09/01 16:13:19;;;;;;;2.85;1.40;;;24.30;63.60;;;;;;7355463;32;20112;-65
2022/09/01 16:17:43;;;;;;;2.05;1.25;;;24.30;64.00;;;;;;7352910;32;20183;-66
2022/09/01 16:22:22;;;;;;;1.60;0.90;;;24.30;64.50;;;;;;7350894;32;20726;-67
2022/09/01 16:26:24;;;;;;;3.55;0.90;;;24.20;64.10;;;;;;7311891;32;20262;-66
2022/09/01 16:30:27;;;;;;;2.58;0.98;;;24.20;64.50;;;;;;7354950;32;20254;-65
2022/09/01 16:34:31;;;;;;;1.30;0.80;;;24.20;64.60;;;;;;7356910;32;20110;-55
2022/09/01 16:39:07;;;;;;;1.40;0.80;;;24.20;65.10;;;;;;7360734;32;20545;-65
2022/09/01 16:43:20;;;;;;;4.25;0.90;;;24.20;63.20;;;;;;7358322;32;20259;-65
2022/09/01 16:47:25;;;;;;;3.22;0.70;;;24.10;64.50;;;;;;7361607;32;20131;-66
2022/09/01 16:51:26;;;;;;;2.80;1.00;;;24.00;63.20;;;;;;7360453;32;20601;-65
2022/09/01 16:55:37;;;;;;;2.70;0.70;;;23.90;63.60;;;;;;7352398;32;20131;-66
2022/09/01 17:00:01;;;;;;;6.22;1.00;;;23.80;63.50;;;;;;7358475;32;20307;-66
2022/09/01 17:04:09;;;;;;;4.15;0.85;;;23.70;64.00;;;;;;7360122;32;20122;-66
2022/09/01 17:08:16;;;;;;;5.30;0.85;;;23.60;63.90;;;;;;7355604;32;20156;-66
2022/09/01 17:12:18;;;;;;;;;;;23.50;63.00;;;;;;7350901;32;20158;-69
2022/09/01 17:16:28;;;;;;;4.57;0.77;;;23.40;62.90;;;;;;7358413;32;20020;-57
2022/09/01 17:20:34;;;;;;;4.32;0.75;;;23.20;63.80;;;;;;7359311;32;20175;-57
2022/09/01 17:24:56;;;;;;;2.75;0.62;;;23.20;64.50;;;;;;7355780;32;20124;-57
2022/09/01 17:29:09;;;;;;;3.37;0.88;;;23.10;64.30;;;;;;7350877;32;20126;-57
2022/09/01 17:33:24;;;;;;;3.72;1.65;;;23.00;64.70;;;;;;7355046;32;20141;-62
2022/09/01 17:37:41;;;;;;;4.70;0.85;;;23.00;64.20;;;;;;7349803;32;20274;-56
2022/09/01 17:41:55;;;;;;;5.80;0.85;;;22.90;65.20;;;;;;7360440;32;20773;-65
2022/09/01 17:46:35;;;;;;;3.95;0.90;;;22.80;65.60;;;;;;7349339;32;20107;-69
2022/09/01 17:50:51;;;;;;;5.50;0.80;;;22.60;65.00;;;;;;7356128;32;20232;-66
2022/09/01 17:55:14;;;;;;;2.35;0.80;;;22.40;65.50;;;;;;7360145;32;20203;-65
2022/09/01 17:59:47;;;;;;;14.10;9.13;;;22.30;66.20;;;;;;7350719;32;20161;-64
2022/09/01 18:04:05;;;;;;;2.95;1.00;;;22.00;66.70;;;;;;7360279;32;20206;-65
2022/09/01 18:08:28;;;;;;;1.35;0.82;;;22.00;67.60;;;;;;7354017;32;20131;-67
2022/09/01 18:12:34;;;;;;;1.60;0.65;;;21.90;67.90;;;;;;7363031;32;20106;-66
2022/09/01 18:16:48;;;;;;;4.70;1.00;;;21.70;69.30;;;;;;7351288;32;20379;-59
2022/09/01 18:21:02;;;;;;;6.53;0.80;;;21.60;69.70;;;;;;7355079;32;20191;-58
2022/09/01 18:25:08;;;;;;;7.93;0.70;;;21.50;70.50;;;;;;7359219;32;20194;-58
2022/09/01 18:29:09;;;;;;;5.22;0.90;;;21.40;71.10;;;;;;7362594;32;20123;-59
2022/09/01 18:33:27;;;;;;;2.40;0.75;;;21.30;72.20;;;;;;7354335;32;20178;-59
2022/09/01 18:37:52;;;;;;;2.53;0.95;;;21.10;72.90;;;;;;7350038;32;20123;-58
2022/09/01 18:42:06;;;;;;;4.72;0.80;;;21.10;73.20;;;;;;7351526;32;20257;-58
2022/09/01 18:46:27;;;;;;;4.37;0.60;;;21.00;73.90;;;;;;7353772;32;20328;-58
2022/09/01 18:50:32;;;;;;;2.12;1.12;;;20.90;74.60;;;;;;7358399;32;20108;-64
2022/09/01 18:54:40;;;;;;;2.35;0.60;;;20.70;75.70;;;;;;7353899;32;20194;-61
2022/09/01 18:58:58;;;;;;;3.65;0.85;;;20.50;76.10;;;;;;7353914;32;20107;-62
2022/09/01 19:03:09;;;;;;;8.07;0.90;;;20.40;77.30;;;;;;7349986;32;20224;-61
2022/09/01 19:07:41;;;;;;;5.95;0.90;;;20.50;78.00;;;;;;7350381;32;20234;-60
2022/09/01 19:12:09;;;;;;;2.33;0.62;;;20.30;78.40;;;;;;7350641;32;20511;-63
2022/09/01 19:16:25;;;;;;;3.20;1.00;;;20.20;79.10;;;;;;7355719;32;20743;-62
2022/09/01 19:20:59;;;;;;;1.37;0.73;;;20.00;79.70;;;;;;7353832;32;20194;-61
2022/09/01 19:29:36;;;;;;;6.12;1.00;;;19.80;81.50;;;;;;7350352;32;20125;-61
2022/09/01 19:33:42;;;;;;;4.07;0.88;;;19.70;81.90;;;;;;7347239;32;20214;-62
2022/09/01 19:37:49;;;;;;;5.05;0.93;;;19.60;82.70;;;;;;7350178;32;20281;-62
2022/09/01 19:42:02;;;;;;;1.95;0.85;;;19.60;83.00;;;;;;7353883;32;20123;-61
2022/09/01 19:46:32;;;;;;;5.15;0.90;;;19.50;83.50;;;;;;7354308;32;20315;-62
2022/09/01 19:50:46;;;;;;;3.47;1.00;;;19.40;83.70;;;;;;7346512;32;20242;-60
2022/09/01 19:54:58;;;;;;;2.25;0.85;;;19.30;84.90;;;;;;7350983;32;20124;-62
2022/09/01 19:59:21;;;;;;;3.50;1.08;;;19.20;86.10;;;;;;7352404;32;20226;-62
2022/09/01 20:03:32;;;;;;;3.35;0.90;;;19.10;85.60;;;;;;7350574;32;20110;-63
2022/09/01 20:07:43;;;;;;;1.48;0.82;;;19.00;86.50;;;;;;7354106;32;20870;-63
2022/09/01 20:12:11;;;;;;;4.70;0.90;;;18.90;88.30;;;;;;7361479;32;20190;-62
2022/09/01 20:16:41;;;;;;;3.92;1.00;;;18.90;87.10;;;;;;7354680;32;20118;-61
2022/09/01 20:20:46;;;;;;;3.72;1.00;;;18.80;87.30;;;;;;7353132;32;20125;-62
2022/09/01 20:24:50;;;;;;;3.67;0.90;;;18.80;87.50;;;;;;7355902;32;20120;-61
2022/09/01 20:29:06;;;;;;;1.80;0.98;;;18.80;88.10;;;;;;7359951;32;20176;-63
2022/09/01 20:33:11;;;;;;;5.05;1.08;;;18.80;87.80;;;;;;7351574;32;20478;-61
2022/09/01 20:37:17;;;;;;;5.70;1.15;;;18.80;87.90;;;;;;7355551;32;20106;-62
2022/09/01 20:41:27;;;;;;;4.15;1.08;;;18.90;88.30;;;;;;7353810;32;20108;-62
2022/09/01 20:45:30;;;;;;;2.35;0.88;;;18.80;88.50;;;;;;7358263;32;20263;-61
2022/09/01 20:49:37;;;;;;;5.32;0.93;;;18.80;87.60;;;;;;7358658;32;20170;-61
2022/09/01 20:54:02;;;;;;;9.43;1.20;;;18.80;86.50;;;;;;7357113;32;20392;-61
2022/09/01 20:58:13;;;;;;;2.53;1.00;;;18.80;85.80;;;;;;7363763;32;20263;-61
2022/09/01 21:02:45;;;;;;;2.42;1.17;;;18.80;86.00;;;;;;7362023;32;20197;-59
2022/09/01 21:07:06;;;;;;;1.67;1.00;;;18.80;87.80;;;;;;7366396;32;20193;-60
2022/09/01 21:11:27;;;;;;;2.08;0.90;;;18.70;86.60;;;;;;7352227;32;20222;-59
2022/09/01 21:15:52;;;;;;;5.45;0.90;;;18.70;86.70;;;;;;7355039;32;20099;-59
2022/09/01 21:20:29;;;;;;;4.00;1.30;;;18.60;86.70;;;;;;7359828;32;20127;-59
2022/09/01 21:24:31;;;;;;;2.80;1.10;;;18.60;86.80;;;;;;7352595;32;20107;-59
2022/09/01 21:28:33;;;;;;;6.35;1.20;;;18.60;87.90;;;;;;7351998;32;20620;-60
2022/09/01 21:32:36;;;;;;;2.28;1.20;;;18.60;86.30;;;;;;7358638;32;20261;-59
2022/09/01 21:36:38;;;;;;;4.53;1.12;;;18.50;85.90;;;;;;7354867;32;20112;-60
2022/09/01 21:40:40;;;;;;;4.70;1.12;;;18.60;85.80;;;;;;7356312;32;20198;-59